Time;durP1;ratioP1;P1;durP2;ratioP2;P2;SDS_P1;SDS_P2;PMS_P1;PMS_P2;Temp;Humidity;BMP_temperature;BMP_pressure;BME280_temperature;BME280_humidity;BME280_pressure;Samples;Min_cycle;Max_cycle;Signal;HPM_P1;HPM_P2
2022/08/27 00:01:38;;;;;;;6.30;2.67;;;;;;;19.33;63.28;101647.00;5073386;28;20375;-70
2022/08/27 00:04:03;;;;;;;5.13;2.70;;;;;;;19.31;63.12;101640.75;5073109;28;20054;-70
2022/08/27 00:06:29;;;;;;;7.43;2.50;;;;;;;19.27;63.35;101656.03;5073239;28;20031;-69
2022/08/27 00:08:54;;;;;;;6.43;2.70;;;;;;;19.16;63.64;101649.00;5073354;28;20028;-69
2022/08/27 00:11:24;;;;;;;5.85;2.72;;;;;;;19.26;63.34;101651.53;5073177;28;20104;-68
2022/08/27 00:13:50;;;;;;;7.32;2.90;;;;;;;19.14;63.75;101645.44;5073670;28;20108;-70
2022/08/27 00:16:16;;;;;;;6.07;2.83;;;;;;;19.06;63.60;101639.28;5055031;28;20136;-69
2022/08/27 00:18:44;;;;;;;8.32;2.90;;;;;;;19.07;63.81;101639.28;5073404;28;20033;-69
2022/08/27 00:21:10;;;;;;;7.32;2.67;;;;;;;19.02;64.17;101638.47;5072981;28;20029;-71
2022/08/27 00:23:36;;;;;;;6.93;3.10;;;;;;;19.02;64.51;101635.78;5073092;28;20064;-69
2022/08/27 00:26:03;;;;;;;7.13;2.88;;;;;;;18.98;64.63;101639.41;5073007;28;20111;-69
2022/08/27 00:28:29;;;;;;;6.80;3.00;;;;;;;19.04;64.36;101639.31;5072770;28;20089;-70
2022/08/27 00:30:55;;;;;;;11.43;3.08;;;;;;;18.97;64.56;101635.84;5072826;28;20478;-70
2022/08/27 00:33:21;;;;;;;8.02;2.85;;;;;;;19.05;64.39;101633.03;5072691;28;20028;-68
2022/08/27 00:35:47;;;;;;;7.57;3.10;;;;;;;19.01;64.73;101634.91;5072965;28;20032;-70
2022/08/27 00:38:13;;;;;;;5.68;2.67;;;;;;;18.97;64.91;101635.84;5072103;28;20021;-69
2022/08/27 00:40:40;;;;;;;6.13;2.58;;;;;;;18.96;65.03;101630.47;5072879;28;20032;-67
2022/08/27 00:43:06;;;;;;;6.65;2.80;;;;;;;18.92;64.72;101629.63;5072794;28;20402;-68
2022/08/27 00:45:38;;;;;;;6.95;2.90;;;;;;;18.87;64.92;101628.78;5072663;28;20025;-67
2022/08/27 00:48:06;;;;;;;7.55;3.28;;;;;;;18.81;65.09;101625.31;5073024;28;20475;-68
2022/08/27 00:50:53;;;;;;;6.15;2.70;;;;;;;18.77;65.40;101635.16;5072477;28;20036;-68
2022/08/27 00:53:22;;;;;;;7.53;2.83;;;;;;;18.75;65.43;101635.16;5072729;28;20109;-68
2022/08/27 00:56:10;;;;;;;9.13;3.08;;;;;;;18.76;65.38;101630.72;5072302;28;20021;-68
2022/08/27 00:58:43;;;;;;;9.88;3.10;;;;;;;18.74;65.19;101633.38;5072714;28;20035;-67
2022/08/27 01:01:11;;;;;;;5.63;2.80;;;;;;;18.70;65.54;101633.44;5072918;28;20025;-70
2022/08/27 01:03:37;;;;;;;7.28;2.78;;;;;;;18.66;65.76;101634.34;5072557;28;20056;-68
2022/08/27 01:06:08;;;;;;;12.85;2.85;;;;;;;18.63;65.94;101629.00;5072627;28;20108;-68
2022/08/27 01:08:38;;;;;;;7.53;2.70;;;;;;;18.52;66.00;101632.69;5072568;28;20485;-71
2022/08/27 01:11:04;;;;;;;8.40;3.08;;;;;;;18.54;65.95;101643.38;5072848;28;20115;-71
2022/08/27 01:13:32;;;;;;;10.07;3.40;;;;;;;18.44;66.40;101634.53;5072271;28;20104;-69
2022/08/27 01:15:58;;;;;;;4.32;2.88;;;;;;;18.40;66.37;101629.22;5072642;28;20021;-69
2022/08/27 01:18:29;;;;;;;10.23;3.28;;;;;;;18.36;66.46;101620.34;5072543;28;20020;-71
2022/08/27 01:21:05;;;;;;;6.07;3.10;;;;;;;18.38;66.83;101623.91;5072341;28;20017;-66
2022/08/27 01:23:37;;;;;;;6.45;3.05;;;;;;;18.26;67.35;101627.56;5072510;28;20031;-70
2022/08/27 01:26:05;;;;;;;6.65;3.20;;;;;;;18.19;67.80;101632.97;5072265;28;20044;-69
2022/08/27 01:28:33;;;;;;;8.05;3.20;;;;;;;18.15;67.56;101629.44;5072645;28;20040;-68
2022/08/27 01:30:59;;;;;;;8.20;3.15;;;;;;;18.11;67.72;101627.69;5072374;28;20377;-67
2022/08/27 01:33:24;;;;;;;6.75;3.20;;;;;;;18.18;67.76;101629.41;5071961;28;20029;-67
2022/08/27 01:35:51;;;;;;;7.07;3.38;;;;;;;18.15;67.63;101631.22;5072562;28;20071;-69
2022/08/27 01:38:18;;;;;;;7.30;3.45;;;;;;;18.18;67.45;101629.41;5072189;28;20086;-69
2022/08/27 01:40:44;;;;;;;8.57;3.35;;;;;;;18.09;67.68;101626.81;5072404;28;20037;-68
2022/08/27 01:43:10;;;;;;;9.60;3.60;;;;;;;18.13;67.69;101625.00;5072215;28;20082;-69
2022/08/27 01:45:39;;;;;;;9.20;3.28;;;;;;;18.15;67.68;101626.75;5072306;28;20063;-68
2022/08/27 01:48:06;;;;;;;8.65;3.40;;;;;;;18.19;67.52;101625.84;5072024;28;20043;-70
2022/08/27 01:50:35;;;;;;;9.07;3.40;;;;;;;18.16;67.42;101631.22;5074644;28;20066;-66
2022/08/27 01:53:07;;;;;;;8.68;3.15;;;;;;;18.19;67.60;101624.94;5075794;28;20109;-69
2022/08/27 01:55:33;;;;;;;6.85;3.33;;;;;;;18.20;67.22;101622.28;5075797;28;20043;-68
2022/08/27 01:57:59;;;;;;;7.20;3.45;;;;;;;18.13;67.52;101623.22;5075771;28;20028;-69
2022/08/27 02:00:28;;;;;;;8.77;3.50;;;;;;;18.09;67.76;101621.47;5075666;28;20027;-68
2022/08/27 02:02:55;;;;;;;7.95;3.38;;;;;;;17.98;68.07;101621.53;5057533;28;20620;-69
2022/08/27 02:05:21;;;;;;;6.95;3.28;;;;;;;17.96;68.29;101614.44;5075506;28;20024;-68
2022/08/27 02:07:48;;;;;;;8.38;3.20;;;;;;;17.91;67.97;101619.84;5075522;28;20036;-69
2022/08/27 02:10:18;;;;;;;8.73;3.05;;;;;;;17.89;68.40;101616.25;5075518;28;20028;-69
2022/08/27 02:12:44;;;;;;;9.52;3.15;;;;;;;17.88;68.09;101613.59;5075954;28;20016;-68
2022/08/27 02:15:09;;;;;;;6.72;3.13;;;;;;;17.84;68.54;101611.84;5057547;28;20020;-69
2022/08/27 02:17:35;;;;;;;9.23;3.30;;;;;;;17.73;68.72;101612.78;5075295;28;20033;-68
2022/08/27 02:20:00;;;;;;;8.25;3.30;;;;;;;17.68;68.91;101611.03;5075411;28;20040;-68
2022/08/27 02:22:26;;;;;;;6.85;3.28;;;;;;;17.72;68.60;101613.66;5075298;28;20036;-69
2022/08/27 02:24:52;;;;;;;5.90;3.08;;;;;;;17.69;68.78;101615.50;5075344;28;20032;-69
2022/08/27 02:27:18;;;;;;;7.45;3.30;;;;;;;17.58;68.80;101610.19;5075049;28;20445;-70
2022/08/27 02:29:46;;;;;;;6.47;3.15;;;;;;;17.59;68.91;101608.41;5074887;28;20386;-69
2022/08/27 02:32:12;;;;;;;7.55;3.03;;;;;;;17.62;68.62;101608.41;5074359;28;20068;-70
2022/08/27 02:34:37;;;;;;;5.82;3.05;;;;;;;17.64;68.31;101607.47;5075117;28;20490;-68
2022/08/27 02:37:03;;;;;;;7.07;3.15;;;;;;;17.65;67.92;101606.59;5075340;28;20033;-69
2022/08/27 02:39:28;;;;;;;10.07;2.95;;;;;;;17.58;68.19;101601.31;5074936;28;20016;-69
2022/08/27 02:41:54;;;;;;;8.80;3.17;;;;;;;17.48;68.87;101603.16;5040410;28;20419;-70
2022/08/27 02:44:19;;;;;;;6.85;2.97;;;;;;;17.45;68.54;101606.72;5056972;28;20024;-68
2022/08/27 02:46:45;;;;;;;10.82;3.33;;;;;;;17.35;69.51;101604.13;5074916;28;20048;-70
2022/08/27 02:49:10;;;;;;;8.63;3.08;;;;;;;17.23;69.64;101613.94;5074781;28;20025;-69
2022/08/27 02:51:36;;;;;;;8.23;3.42;;;;;;;17.20;69.76;101607.72;5074751;28;20033;-69
2022/08/27 02:54:02;;;;;;;8.20;3.40;;;;;;;17.16;69.62;101612.19;5074689;28;20025;-68
2022/08/27 02:56:27;;;;;;;7.32;3.10;;;;;;;17.13;69.53;101609.56;5074450;28;20033;-70
2022/08/27 02:58:53;;;;;;;5.38;3.10;;;;;;;17.15;69.30;101612.19;5056826;28;20040;-70
2022/08/27 03:01:19;;;;;;;8.20;3.40;;;;;;;17.25;69.53;101609.47;5073834;28;20028;-68
2022/08/27 03:03:45;;;;;;;6.68;3.30;;;;;;;17.16;69.46;101613.97;5074408;28;20044;-69
2022/08/27 03:06:11;;;;;;;8.93;3.25;;;;;;;17.03;69.94;101614.00;5074733;28;20021;-69
2022/08/27 03:08:37;;;;;;;5.00;2.90;;;;;;;17.10;69.91;101614.91;5074719;28;20029;-69
2022/08/27 03:11:02;;;;;;;8.50;3.45;;;;;;;17.01;69.93;101615.81;5074367;28;20025;-70
2022/08/27 03:13:28;;;;;;;8.82;3.22;;;;;;;16.96;69.97;101609.63;5074035;28;20029;-69
2022/08/27 03:15:53;;;;;;;6.53;3.40;;;;;;;16.94;70.12;101611.38;5074379;28;20017;-70
2022/08/27 03:18:20;;;;;;;7.85;3.33;;;;;;;16.91;70.13;101618.50;5056246;28;20069;-69
2022/08/27 03:20:54;;;;;;;6.60;3.40;;;;;;;16.88;70.51;101606.06;5074435;28;20024;-70
2022/08/27 03:23:24;;;;;;;7.38;3.58;;;;;;;16.86;70.51;101610.50;5074183;28;20095;-69
2022/08/27 03:25:55;;;;;;;8.07;3.13;;;;;;;16.86;70.85;101610.50;5073717;28;20474;-69
2022/08/27 03:28:24;;;;;;;6.80;3.38;;;;;;;16.85;71.08;101611.41;5073994;28;20024;-69
2022/08/27 03:30:52;;;;;;;7.45;3.50;;;;;;;16.93;71.03;101612.28;5073960;28;20362;-70
2022/08/27 03:33:19;;;;;;;10.32;4.30;;;;;;;17.01;70.93;101609.59;5073902;28;20470;-71
2022/08/27 03:35:46;;;;;;;7.35;3.50;;;;;;;17.06;71.10;101618.47;5073937;28;20082;-69
2022/08/27 03:38:13;;;;;;;6.88;3.38;;;;;;;17.13;70.62;101613.97;5056041;28;20031;-69
2022/08/27 03:40:39;;;;;;;9.82;3.63;;;;;;;17.05;71.05;101610.47;5073565;28;20025;-68
2022/08/27 03:43:04;;;;;;;7.78;3.53;;;;;;;17.15;70.94;101607.75;5073859;28;20155;-69
2022/08/27 03:45:30;;;;;;;8.20;3.40;;;;;;;17.17;70.88;101621.09;5073650;28;20024;-70
2022/08/27 03:47:55;;;;;;;6.78;3.40;;;;;;;17.19;70.52;101627.31;5073602;28;20112;-68
2022/08/27 03:50:21;;;;;;;7.90;3.70;;;;;;;17.15;71.18;101614.88;5073772;28;20382;-69
2022/08/27 03:52:47;;;;;;;9.30;3.75;;;;;;;17.03;71.62;101619.34;5073619;28;20374;-68
2022/08/27 03:55:13;;;;;;;5.93;3.40;;;;;;;17.03;71.55;101615.81;5055513;28;20113;-69
2022/08/27 03:57:39;;;;;;;6.70;3.70;;;;;;;17.01;71.81;101617.59;5073414;28;20427;-70
2022/08/27 04:00:12;;;;;;;6.50;3.30;;;;;;;17.06;71.71;101614.91;5055879;28;20048;-69
2022/08/27 04:02:39;;;;;;;8.38;3.70;;;;;;;17.05;71.84;101615.81;5073051;28;20539;-70
2022/08/27 04:05:06;;;;;;;7.65;3.83;;;;;;;17.09;71.53;101617.59;5073400;28;20077;-69
2022/08/27 04:07:32;;;;;;;6.18;3.30;;;;;;;17.03;71.52;101608.69;5073323;28;20052;-69
2022/08/27 04:09:57;;;;;;;6.80;3.60;;;;;;;17.05;71.86;101614.03;5073227;28;20070;-70
2022/08/27 04:12:23;;;;;;;9.57;3.70;;;;;;;17.00;71.84;101614.06;5055147;28;20495;-69
2022/08/27 04:14:48;;;;;;;10.82;3.58;;;;;;;17.00;71.70;101614.06;5072649;28;20024;-68
2022/08/27 04:17:14;;;;;;;7.20;3.20;;;;;;;17.02;71.85;101609.56;5055273;28;20025;-70
2022/08/27 04:19:40;;;;;;;9.32;3.85;;;;;;;16.95;71.91;101607.81;5073121;28;20021;-69
2022/08/27 04:22:06;;;;;;;6.07;3.17;;;;;;;17.04;71.75;101609.56;5073520;28;20090;-69
2022/08/27 04:24:35;;;;;;;8.52;3.35;;;;;;;17.08;71.69;101616.66;5073000;28;20048;-69
2022/08/27 04:27:01;;;;;;;7.18;3.70;;;;;;;17.03;71.53;101610.47;5072785;28;20021;-69
2022/08/27 04:29:26;;;;;;;9.52;3.75;;;;;;;16.96;71.78;101604.28;5073096;28;20053;-68
2022/08/27 04:31:52;;;;;;;10.52;3.78;;;;;;;16.93;71.75;101609.63;5073147;28;20066;-68
2022/08/27 04:34:18;;;;;;;7.65;3.58;;;;;;;16.93;71.65;101614.94;5072869;28;20020;-71
2022/08/27 04:36:44;;;;;;;7.22;3.60;;;;;;;16.89;71.63;101623.88;5072789;28;20070;-68
2022/08/27 04:39:10;;;;;;;8.68;3.80;;;;;;;16.78;71.89;101618.53;5073145;28;20390;-69
2022/08/27 04:41:35;;;;;;;10.30;3.40;;;;;;;16.70;71.75;101617.66;5072851;28;20482;-67
2022/08/27 04:44:07;;;;;;;8.32;3.70;;;;;;;16.65;72.38;101622.09;5054919;28;20096;-68
2022/08/27 04:46:36;;;;;;;7.57;3.40;;;;;;;16.62;72.63;101621.25;5072851;28;20025;-68
2022/08/27 04:49:07;;;;;;;7.20;3.30;;;;;;;16.62;72.45;101624.78;5072696;28;20024;-69
2022/08/27 04:51:33;;;;;;;6.17;3.60;;;;;;;16.70;72.22;101623.00;5072789;28;20024;-69
2022/08/27 04:54:01;;;;;;;9.45;3.60;;;;;;;16.72;72.05;101626.56;5054805;28;20500;-68
2022/08/27 04:56:28;;;;;;;7.57;3.67;;;;;;;16.75;71.68;101628.34;5072686;28;20024;-69
2022/08/27 04:58:54;;;;;;;6.68;3.40;;;;;;;16.74;71.62;101627.47;5072618;28;20031;-68
2022/08/27 05:01:22;;;;;;;6.72;3.50;;;;;;;16.71;71.56;101622.09;5072691;28;20033;-69
2022/08/27 05:03:47;;;;;;;7.53;3.58;;;;;;;16.62;72.10;101621.25;5072301;28;20048;-69
2022/08/27 05:06:14;;;;;;;9.02;3.75;;;;;;;16.55;72.60;101624.78;5072470;28;20489;-68
2022/08/27 05:08:40;;;;;;;6.70;3.80;;;;;;;16.51;72.40;101629.25;5072665;28;20163;-69
2022/08/27 05:11:13;;;;;;;10.85;3.88;;;;;;;16.62;72.42;101626.56;5072569;28;20060;-69
2022/08/27 05:13:40;;;;;;;6.93;3.65;;;;;;;16.59;72.65;101624.78;5072584;28;20028;-70
2022/08/27 05:16:09;;;;;;;7.22;3.90;;;;;;;16.63;72.83;101631.00;5054520;28;20037;-70
2022/08/27 05:18:35;;;;;;;8.48;3.60;;;;;;;16.73;72.67;101632.78;5072688;28;20031;-69
2022/08/27 05:21:01;;;;;;;6.95;3.45;;;;;;;16.86;72.28;101631.88;5072375;28;20025;-69
2022/08/27 05:23:27;;;;;;;7.95;4.00;;;;;;;16.89;72.11;101631.88;5072418;28;20366;-69
2022/08/27 05:25:53;;;;;;;8.30;3.97;;;;;;;16.96;72.26;101632.75;5075809;28;20020;-70
2022/08/27 05:28:21;;;;;;;6.38;3.72;;;;;;;16.97;72.31;101631.84;5058447;28;20036;-70
2022/08/27 05:30:50;;;;;;;10.65;3.80;;;;;;;17.11;72.31;101635.34;5076386;28;20490;-70
2022/08/27 05:33:18;;;;;;;8.30;3.70;;;;;;;17.18;72.25;101636.25;5076131;28;20083;-69
2022/08/27 05:35:47;;;;;;;6.43;3.60;;;;;;;17.27;72.33;101646.88;5076273;28;20016;-69
2022/08/27 05:38:13;;;;;;;9.35;3.90;;;;;;;17.35;72.45;101638.84;5076158;28;20098;-70
2022/08/27 05:40:40;;;;;;;9.75;4.65;;;;;;;17.45;72.59;101640.56;5076154;28;20044;-70
2022/08/27 05:43:05;;;;;;;8.80;4.00;;;;;;;17.50;72.30;101639.63;5076084;28;20025;-70
2022/08/27 05:45:32;;;;;;;7.30;4.07;;;;;;;17.58;71.94;101636.03;5075949;28;20460;-70
2022/08/27 05:47:58;;;;;;;11.10;4.18;;;;;;;17.64;72.74;101634.22;5076178;28;20020;-70
2022/08/27 05:50:25;;;;;;;9.50;4.15;;;;;;;17.69;71.75;101645.78;5057945;28;20363;-70
2022/08/27 05:52:51;;;;;;;9.18;4.32;;;;;;;17.76;72.42;101642.19;5075972;28;20034;-70
2022/08/27 05:55:16;;;;;;;11.95;4.68;;;;;;;17.74;73.53;101640.44;5075804;28;20032;-70
2022/08/27 05:57:42;;;;;;;10.02;4.10;;;;;;;17.76;74.00;101631.50;5057752;28;20028;-67
2022/08/27 06:02:51;;;;;;;8.98;4.63;;;;;;;17.74;74.61;101629.75;5075814;28;20430;-70
2022/08/27 06:05:17;;;;;;;10.20;4.45;;;;;;;17.87;74.18;101635.91;5057964;28;20049;-71
2022/08/27 06:07:42;;;;;;;14.88;4.47;;;;;;;17.90;73.74;101646.56;5075528;28;20100;-69
2022/08/27 06:10:08;;;;;;;12.15;4.72;;;;;;;17.93;73.85;101642.09;5075590;28;20025;-70
2022/08/27 06:12:33;;;;;;;10.18;4.38;;;;;;;17.97;73.14;101646.50;5075331;28;20024;-68
2022/08/27 06:14:59;;;;;;;12.50;4.50;;;;;;;17.96;73.21;101650.09;5075351;28;20020;-70
2022/08/27 06:17:25;;;;;;;9.98;4.30;;;;;;;18.02;72.99;101654.50;5075420;28;20024;-68
2022/08/27 06:19:50;;;;;;;11.13;4.40;;;;;;;18.01;73.46;101653.63;5057484;28;20471;-70
2022/08/27 06:22:15;;;;;;;10.05;4.63;;;;;;;18.04;73.35;101651.84;5075367;28;20169;-69
2022/08/27 06:24:42;;;;;;;11.63;4.40;;;;;;;18.06;73.17;101656.25;5075307;28;20027;-70
2022/08/27 06:27:14;;;;;;;10.68;4.00;;;;;;;18.05;73.09;101646.47;5075090;28;20020;-68
2022/08/27 06:29:40;;;;;;;8.13;4.13;;;;;;;18.00;73.58;101649.19;5075242;28;20115;-70
2022/08/27 06:32:06;;;;;;;10.77;4.07;;;;;;;18.01;73.12;101655.41;5075239;28;20052;-69
2022/08/27 06:34:32;;;;;;;12.23;4.35;;;;;;;18.06;73.40;101658.94;5074877;28;20036;-70
2022/08/27 06:36:58;;;;;;;11.27;4.10;;;;;;;18.12;73.83;101652.66;5074058;28;20021;-70
2022/08/27 06:39:23;;;;;;;15.10;4.22;;;;;;;18.18;73.46;101655.28;5074976;28;20367;-69
2022/08/27 06:41:49;;;;;;;9.30;4.18;;;;;;;18.24;72.48;101647.19;5074947;28;20070;-69
2022/08/27 06:44:14;;;;;;;10.25;4.07;;;;;;;18.24;72.14;101655.22;5075045;28;20066;-69
2022/08/27 06:46:41;;;;;;;11.45;4.38;;;;;;;18.25;73.31;101649.88;5075049;28;20148;-67
2022/08/27 06:49:07;;;;;;;12.55;4.13;;;;;;;18.37;72.28;101656.00;5074930;28;20024;-69
2022/08/27 06:51:35;;;;;;;12.40;4.43;;;;;;;18.34;72.02;101651.59;5074939;28;20478;-68
2022/08/27 06:54:03;;;;;;;10.45;3.97;;;;;;;18.38;72.69;101655.13;5074725;28;20023;-68
2022/08/27 06:56:30;;;;;;;14.30;4.32;;;;;;;18.33;72.24;101649.81;5074359;28;20036;-71
2022/08/27 06:58:58;;;;;;;9.35;4.20;;;;;;;18.30;72.04;101652.53;5074810;28;20028;-68
2022/08/27 07:01:27;;;;;;;12.15;4.00;;;;;;;18.35;73.01;101652.47;5074568;28;20032;-67
2022/08/27 07:03:54;;;;;;;10.25;4.18;;;;;;;18.37;72.53;101654.25;5074458;28;20053;-69
2022/08/27 07:06:19;;;;;;;9.35;4.20;;;;;;;18.46;72.28;101650.59;5074579;28;20096;-68
2022/08/27 07:08:45;;;;;;;7.75;3.70;;;;;;;18.48;72.23;101657.69;5074466;28;20497;-69
2022/08/27 07:11:12;;;;;;;8.27;4.05;;;;;;;18.53;71.88;101653.19;5074465;28;20040;-69
2022/08/27 07:13:39;;;;;;;11.80;4.03;;;;;;;18.58;72.18;101658.50;5074407;28;20032;-69
2022/08/27 07:16:06;;;;;;;13.75;4.32;;;;;;;18.57;71.92;101661.19;5074442;28;20029;-67
2022/08/27 07:18:32;;;;;;;7.70;3.80;;;;;;;18.59;71.93;101665.66;5074290;28;20100;-69
2022/08/27 07:20:59;;;;;;;7.20;3.88;;;;;;;18.59;71.56;101660.31;5074205;28;20051;-69
2022/08/27 07:23:24;;;;;;;9.25;4.05;;;;;;;18.63;70.84;101663.81;5056323;28;20493;-67
2022/08/27 07:25:50;;;;;;;9.05;4.00;;;;;;;18.63;70.59;101662.03;5073752;28;20028;-67
2022/08/27 07:28:16;;;;;;;11.55;4.15;;;;;;;18.69;70.42;101656.66;5074390;28;20039;-70
2022/08/27 07:30:41;;;;;;;9.07;4.28;;;;;;;18.74;70.56;101657.50;5073950;28;20029;-69
2022/08/27 07:33:07;;;;;;;8.00;4.30;;;;;;;18.80;69.34;101658.31;5074165;28;20029;-69
2022/08/27 07:35:32;;;;;;;7.57;4.25;;;;;;;18.85;69.89;101661.88;5073989;28;20031;-68
2022/08/27 07:37:57;;;;;;;10.07;4.32;;;;;;;18.88;69.04;101668.06;5073925;28;20108;-68
2022/08/27 07:40:23;;;;;;;13.05;4.50;;;;;;;18.95;67.88;101671.56;5073790;28;20029;-67
2022/08/27 07:45:33;;;;;;;8.55;4.47;;;;;;;19.06;68.42;101672.34;5074190;28;20043;-70
2022/08/27 07:47:58;;;;;;;9.40;4.28;;;;;;;19.20;68.61;101666.81;5073434;28;20017;-67
2022/08/27 07:50:24;;;;;;;12.00;4.72;;;;;;;19.25;67.69;101673.00;5073781;28;20143;-70
2022/08/27 07:52:50;;;;;;;9.60;4.78;;;;;;;19.34;68.06;101675.56;5073434;28;20022;-68
2022/08/27 07:55:17;;;;;;;11.88;4.75;;;;;;;19.45;66.09;101675.47;5073584;28;20054;-68
2022/08/27 07:57:44;;;;;;;10.30;4.70;;;;;;;19.63;66.28;101669.88;5073224;28;20039;-69
2022/08/27 08:00:10;;;;;;;9.82;4.45;;;;;;;19.83;66.03;101677.66;5073658;28;20099;-69
2022/08/27 08:02:37;;;;;;;10.07;4.80;;;;;;;19.97;65.88;101672.97;5073664;28;20447;-67
2022/08/27 08:05:05;;;;;;;9.73;4.60;;;;;;;20.15;64.97;101682.53;5073400;28;20021;-67
2022/08/27 08:07:31;;;;;;;11.45;4.75;;;;;;;20.18;64.03;101678.94;5073375;28;20032;-67
2022/08/27 08:09:57;;;;;;;14.70;4.93;;;;;;;20.27;63.98;101673.41;5073309;28;20025;-67
2022/08/27 08:12:22;;;;;;;8.52;4.45;;;;;;;20.60;64.13;101673.75;5073377;28;20108;-69
2022/08/27 08:14:48;;;;;;;11.20;5.00;;;;;;;20.99;63.60;101673.06;5073197;28;20458;-69
2022/08/27 08:17:13;;;;;;;9.52;4.13;;;;;;;21.43;59.93;101671.31;5073238;28;20032;-68
2022/08/27 08:19:39;;;;;;;9.15;4.15;;;;;;;21.79;60.21;101671.41;5073128;28;20069;-68
2022/08/27 08:22:05;;;;;;;14.52;3.85;;;;;;;22.17;57.45;101665.16;5072805;28;20064;-67
2022/08/27 08:24:30;;;;;;;9.68;3.80;;;;;;;22.37;54.60;101666.50;5073131;28;20051;-68
2022/08/27 08:26:56;;;;;;;10.27;3.85;;;;;;;22.57;55.29;101668.66;5072905;28;20075;-66
2022/08/27 08:29:21;;;;;;;8.27;3.80;;;;;;;22.68;52.86;101662.06;5073078;28;20100;-67
2022/08/27 08:31:47;;;;;;;11.50;4.03;;;;;;;22.73;54.32;101661.94;5072918;28;20033;-68
2022/08/27 08:34:12;;;;;;;8.55;3.50;;;;;;;23.02;53.68;101673.78;5054916;28;20028;-67
2022/08/27 08:36:38;;;;;;;7.15;3.50;;;;;;;23.31;52.09;101671.16;5072732;28;20024;-67
2022/08/27 08:39:03;;;;;;;9.02;3.28;;;;;;;23.68;51.40;101675.47;5072881;28;20524;-67
2022/08/27 08:41:51;;;;;;;7.20;3.00;;;;;;;23.61;51.45;101674.75;5072668;28;20025;-66
2022/08/27 08:44:25;;;;;;;7.20;3.05;;;;;;;23.76;49.00;101672.53;5072685;28;20032;-67
2022/08/27 08:46:57;;;;;;;8.98;3.00;;;;;;;23.69;48.59;101675.44;5072824;28;20016;-67
2022/08/27 08:49:45;;;;;;;5.50;2.70;;;;;;;23.65;48.30;101676.47;5072784;28;20021;-66
2022/08/27 08:52:25;;;;;;;6.32;2.78;;;;;;;23.73;46.96;101668.13;5055278;28;20067;-66
2022/08/27 08:54:55;;;;;;;10.93;2.95;;;;;;;23.98;47.14;101674.53;5072905;28;20116;-66
2022/08/27 08:57:29;;;;;;;6.45;2.75;;;;;;;24.24;48.24;101670.09;5072432;28;20040;-66
2022/08/27 09:00:11;;;;;;;6.97;2.78;;;;;;;24.29;47.23;101668.13;5072207;28;20029;-67
2022/08/27 09:02:37;;;;;;;6.80;2.70;;;;;;;24.55;45.90;101667.28;5072517;28;20037;-68
2022/08/27 09:05:06;;;;;;;8.30;2.70;;;;;;;25.01;45.72;101671.06;5072909;28;20166;-66
2022/08/27 09:07:39;;;;;;;8.23;2.65;;;;;;;25.21;45.31;101676.66;5054557;28;20052;-66
2022/08/27 09:10:27;;;;;;;9.13;2.80;;;;;;;25.34;43.86;101676.19;5072537;28;20114;-66
2022/08/27 09:12:57;;;;;;;7.15;2.70;;;;;;;25.19;42.46;101681.25;5072666;28;20039;-66
2022/08/27 09:15:28;;;;;;;7.90;2.75;;;;;;;25.10;43.35;101678.00;5072492;28;20095;-66
2022/08/27 09:18:12;;;;;;;5.65;2.78;;;;;;;24.93;44.55;101686.69;5072579;28;20027;-67
2022/08/27 09:20:40;;;;;;;6.72;2.60;;;;;;;24.59;44.21;101684.28;5072602;28;20028;-67
2022/08/27 09:23:18;;;;;;;7.55;2.60;;;;;;;24.37;45.18;101687.72;5072375;28;20036;-65
2022/08/27 09:25:43;;;;;;;6.18;2.60;;;;;;;24.17;44.91;101685.63;5054362;28;20115;-67
2022/08/27 09:31:09;;;;;;;6.47;2.60;;;;;;;24.04;45.25;101672.56;5072755;28;20071;-66
2022/08/27 09:33:35;;;;;;;6.53;2.58;;;;;;;24.00;45.89;101682.56;5072330;28;20021;-66
2022/08/27 09:36:07;;;;;;;4.32;2.42;;;;;;;24.00;45.05;101679.88;5072339;28;20077;-65
2022/08/27 09:38:34;;;;;;;5.70;2.55;;;;;;;23.94;46.42;101677.38;5072537;28;20025;-66
2022/08/27 09:41:12;;;;;;;5.22;2.40;;;;;;;24.13;46.03;101672.25;5072487;28;20349;-66
2022/08/27 09:43:42;;;;;;;10.45;2.97;;;;;;;24.09;44.45;101682.28;5072461;28;20058;-66
2022/08/27 09:46:22;;;;;;;6.45;2.60;;;;;;;24.24;46.04;101678.22;5072190;28;20482;-66
2022/08/27 09:48:48;;;;;;;6.15;2.58;;;;;;;24.66;45.74;101683.09;5072275;28;20035;-65
2022/08/27 09:51:18;;;;;;;7.57;2.50;;;;;;;25.20;43.54;101677.59;5072233;28;20033;-66
2022/08/27 09:54:07;;;;;;;4.88;2.30;;;;;;;25.56;42.43;101682.53;5072516;28;20359;-67
2022/08/27 09:56:46;;;;;;;5.57;2.45;;;;;;;25.86;42.24;101669.66;5072022;28;20033;-66
2022/08/27 09:59:23;;;;;;;6.47;2.50;;;;;;;26.44;41.40;101671.84;5072017;28;20116;-67
2022/08/27 10:01:51;;;;;;;7.22;3.03;;;;;;;26.76;38.56;101667.75;5072035;28;20047;-66
2022/08/27 10:04:25;;;;;;;7.88;2.65;;;;;;;27.12;37.85;101665.28;5071751;28;20056;-68
2022/08/27 10:06:51;;;;;;;6.15;2.40;;;;;;;27.11;37.71;101676.16;5072027;28;20108;-66
2022/08/27 10:09:28;;;;;;;5.72;2.42;;;;;;;26.73;37.21;101673.31;5072036;28;20202;-66
2022/08/27 10:12:10;;;;;;;6.28;2.35;;;;;;;26.48;38.83;101680.75;5073587;28;20111;-66
2022/08/27 10:14:53;;;;;;;4.47;2.20;;;;;;;25.90;39.48;101673.13;5075527;28;20028;-64
2022/08/27 10:17:33;;;;;;;5.95;2.50;;;;;;;25.32;39.81;101672.69;5075844;28;20029;-64
2022/08/27 10:20:29;;;;;;;4.93;2.22;;;;;;;25.10;40.60;101669.88;5075370;28;20029;-65
2022/08/27 10:23:12;;;;;;;5.95;2.30;;;;;;;24.92;41.27;101669.59;5075336;28;20042;-66
2022/08/27 10:26:00;;;;;;;4.57;2.38;;;;;;;24.88;41.22;101667.00;5075151;28;20035;-66
2022/08/27 10:29:01;;;;;;;5.25;2.38;;;;;;;24.77;42.28;101658.44;5064164;28;20151;-66
2022/08/27 10:32:12;;;;;;;6.78;2.55;;;;;;;24.85;42.34;101668.03;5075217;28;20064;-66
2022/08/27 10:35:12;;;;;;;5.35;2.20;;;;;;;24.77;42.04;101663.84;5075262;28;20036;-66
2022/08/27 10:37:40;;;;;;;5.47;2.20;;;;;;;24.60;42.47;101664.41;5075382;28;20032;-66
2022/08/27 10:40:33;;;;;;;4.38;2.13;;;;;;;24.43;43.00;101663.16;5075055;28;20032;-64
2022/08/27 10:43:04;;;;;;;5.70;2.38;;;;;;;24.62;42.04;101662.53;5074993;28;20082;-66
2022/08/27 10:45:41;;;;;;;5.70;2.33;;;;;;;24.68;42.41;101663.22;5075003;28;20021;-65
2022/08/27 10:48:07;;;;;;;4.40;2.40;;;;;;;24.92;41.53;101661.47;5074900;28;20179;-66
2022/08/27 10:50:36;;;;;;;7.57;2.25;;;;;;;25.13;41.89;101662.50;5074898;28;20474;-66
2022/08/27 10:53:25;;;;;;;4.68;2.40;;;;;;;25.06;41.49;101666.38;5074870;28;20036;-66
2022/08/27 10:56:15;;;;;;;5.93;2.10;;;;;;;25.23;41.25;101661.25;5074604;28;20442;-66
2022/08/27 10:59:13;;;;;;;6.53;2.42;;;;;;;25.35;41.44;101656.31;5074342;28;20040;-65
2022/08/27 11:02:04;;;;;;;6.95;2.00;;;;;;;25.41;41.76;101654.25;5043498;28;20028;-66
2022/08/27 11:04:41;;;;;;;5.43;2.10;;;;;;;25.31;40.96;101662.75;5074464;28;20410;-65
2022/08/27 11:07:19;;;;;;;6.03;2.50;;;;;;;25.22;41.17;101656.78;5074765;28;20137;-66
2022/08/27 11:09:53;;;;;;;4.85;2.20;;;;;;;25.12;41.57;101657.19;5074690;28;20024;-66
2022/08/27 11:12:35;;;;;;;5.68;2.20;;;;;;;25.08;41.30;101659.09;5074667;28;20024;-65
2022/08/27 11:15:07;;;;;;;5.05;2.20;;;;;;;25.17;41.71;101655.19;5074480;28;20036;-66
2022/08/27 11:18:07;;;;;;;6.50;2.30;;;;;;;25.08;40.82;101655.47;5074521;28;20024;-66
2022/08/27 11:20:53;;;;;;;4.82;2.17;;;;;;;25.03;41.46;101657.47;5040238;28;20052;-66
2022/08/27 11:23:22;;;;;;;7.85;2.28;;;;;;;24.82;41.96;101656.44;5074001;28;20078;-65
2022/08/27 11:25:57;;;;;;;6.30;2.40;;;;;;;24.91;42.06;101651.56;5073980;28;20039;-64
2022/08/27 11:28:48;;;;;;;7.93;2.30;;;;;;;24.89;41.87;101653.47;5074150;28;20032;-66
2022/08/27 11:31:34;;;;;;;7.35;2.45;;;;;;;24.84;41.96;101651.84;5073750;28;20055;-65
2022/08/27 11:34:06;;;;;;;6.60;2.20;;;;;;;24.81;41.19;101649.28;5074045;28;20032;-65
2022/08/27 11:36:37;;;;;;;4.93;2.38;;;;;;;24.91;42.45;101646.16;5074316;28;20036;-66
2022/08/27 11:39:15;;;;;;;8.32;2.05;;;;;;;24.90;41.71;101655.22;5073957;28;20036;-66
2022/08/27 11:41:59;;;;;;;5.85;2.10;;;;;;;24.98;41.01;101646.84;5073873;28;20035;-65
2022/08/27 11:44:26;;;;;;;4.60;2.20;;;;;;;25.12;40.87;101646.34;5073830;28;20035;-66